Time;durP1;ratioP1;P1;durP2;ratioP2;P2;SDS_P1;SDS_P2;PMS_P1;PMS_P2;Temp;Humidity;BMP_temperature;BMP_pressure;BME280_temperature;BME280_humidity;BME280_pressure;Samples;Min_cycle;Max_cycle;Signal;HPM_P1;HPM_P2
2021/01/01 00:01:08;;;;;;;89.70;52.83;;;5.20;99.90;;;;;;5018153;28;20980;-77
2021/01/01 00:03:34;;;;;;;103.80;63.63;;;5.10;99.90;;;;;;5005022;28;20303;-76
2021/01/01 00:06:01;;;;;;;121.13;66.33;;;4.90;99.90;;;;;;5002991;28;20209;-76
2021/01/01 00:08:29;;;;;;;105.47;60.30;;;4.50;99.90;;;;;;5016578;28;20278;-73
2021/01/01 00:10:56;;;;;;;138.33;76.90;;;4.40;99.90;;;;;;5018718;28;20228;-74
2021/01/01 00:13:22;;;;;;;143.90;83.47;;;4.30;99.90;;;;;;5017246;28;20228;-73
2021/01/01 00:15:48;;;;;;;138.37;80.10;;;4.50;99.90;;;;;;5020425;28;20220;-74
2021/01/01 00:18:14;;;;;;;125.60;69.80;;;4.60;99.90;;;;;;5012771;28;20232;-76
2021/01/01 00:20:42;;;;;;;109.60;63.53;;;4.70;99.90;;;;;;5004396;28;20547;-74
2021/01/01 00:23:11;;;;;;;108.07;61.17;;;4.80;99.90;;;;;;5002646;28;20679;-73
2021/01/01 00:25:37;;;;;;;101.73;56.70;;;4.80;99.90;;;;;;5015059;28;20359;-76
2021/01/01 00:28:04;;;;;;;97.23;54.50;;;4.80;99.90;;;;;;5015261;28;20320;-74
2021/01/01 00:30:31;;;;;;;110.40;58.23;;;4.90;99.90;;;;;;5019876;28;20315;-75
2021/01/01 00:32:57;;;;;;;88.20;54.07;;;4.70;99.90;;;;;;5012822;28;20253;-73
2021/01/01 00:35:23;;;;;;;91.83;52.90;;;4.80;99.90;;;;;;5015163;28;20272;-73
2021/01/01 00:37:50;;;;;;;84.87;50.30;;;4.80;99.90;;;;;;5017880;28;20227;-72
2021/01/01 00:40:16;;;;;;;83.87;49.07;;;5.00;99.90;;;;;;5013680;28;20206;-71
2021/01/01 00:42:43;;;;;;;92.40;49.80;;;4.90;99.90;;;;;;5019485;28;20500;-71
2021/01/01 00:45:10;;;;;;;92.10;50.00;;;4.90;99.90;;;;;;5014675;28;20638;-74
2021/01/01 00:47:37;;;;;;;82.57;49.37;;;5.00;99.90;;;;;;5015316;28;20213;-72
2021/01/01 00:50:05;;;;;;;94.43;53.57;;;5.00;99.90;;;;;;5018925;28;20291;-72
2021/01/01 00:52:32;;;;;;;101.50;55.87;;;4.80;99.90;;;;;;5018282;28;20641;-74
2021/01/01 00:54:58;;;;;;;107.63;58.20;;;4.40;99.90;;;;;;5014506;28;20214;-72
2021/01/01 00:57:24;;;;;;;110.70;61.10;;;4.30;99.90;;;;;;5048368;28;20228;-73
2021/01/01 00:59:51;;;;;;;102.73;61.60;;;4.40;99.90;;;;;;5018321;28;20292;-72
2021/01/01 01:02:17;;;;;;;114.23;64.00;;;4.50;99.90;;;;;;5014750;28;20289;-72
2021/01/01 01:04:44;;;;;;;118.17;65.10;;;4.60;99.90;;;;;;5002797;28;20295;-72
2021/01/01 01:07:10;;;;;;;117.87;68.43;;;4.60;99.90;;;;;;5017289;28;20655;-72
2021/01/01 01:09:36;;;;;;;121.60;67.40;;;4.70;99.90;;;;;;5014679;28;20207;-72
2021/01/01 01:12:03;;;;;;;112.67;66.00;;;4.70;99.90;;;;;;5031268;28;20898;-72
2021/01/01 01:14:29;;;;;;;121.43;69.37;;;4.70;99.90;;;;;;5015267;28;20197;-72
2021/01/01 01:16:55;;;;;;;127.07;68.53;;;4.80;99.90;;;;;;5012884;28;20268;-72
2021/01/01 01:19:23;;;;;;;119.03;69.40;;;4.60;99.90;;;;;;5032309;28;20201;-72
2021/01/01 01:21:49;;;;;;;122.00;69.07;;;4.80;99.90;;;;;;5013811;28;20232;-72
2021/01/01 01:24:16;;;;;;;120.73;66.27;;;4.80;99.90;;;;;;5004688;28;20221;-72
2021/01/01 01:26:42;;;;;;;125.50;67.90;;;4.70;99.90;;;;;;5013616;28;20752;-73
2021/01/01 01:29:08;;;;;;;125.30;69.47;;;4.60;99.90;;;;;;5012201;28;20612;-73
2021/01/01 01:31:35;;;;;;;130.77;72.70;;;4.50;99.90;;;;;;5013556;28;20697;-72
2021/01/01 01:34:01;;;;;;;143.10;77.50;;;4.30;99.90;;;;;;5015522;28;20204;-72
2021/01/01 01:36:27;;;;;;;134.83;79.30;;;4.10;99.90;;;;;;5011411;28;20239;-72
2021/01/01 01:38:53;;;;;;;146.03;79.77;;;4.40;99.90;;;;;;5012174;28;20213;-72
2021/01/01 01:41:20;;;;;;;161.97;84.53;;;4.50;99.90;;;;;;5014579;28;20643;-71
2021/01/01 01:43:46;;;;;;;152.63;85.40;;;4.40;99.90;;;;;;5013581;28;20653;-72
2021/01/01 01:46:12;;;;;;;159.83;87.73;;;4.20;99.90;;;;;;5016310;28;20281;-72
2021/01/01 01:48:39;;;;;;;157.53;85.77;;;4.00;99.90;;;;;;5014225;28;20644;-72
2021/01/01 01:51:07;;;;;;;158.70;89.30;;;4.00;99.90;;;;;;5028732;28;20637;-72
2021/01/01 01:53:41;;;;;;;155.17;84.47;;;3.90;99.90;;;;;;5014130;28;20202;-72
2021/01/01 01:56:08;;;;;;;154.23;85.77;;;3.80;99.90;;;;;;5017590;28;20249;-72
2021/01/01 01:58:35;;;;;;;152.53;84.27;;;3.90;99.90;;;;;;5014486;28;20343;-72
2021/01/01 02:01:03;;;;;;;147.83;82.43;;;4.00;99.90;;;;;;5015266;28;20286;-73
2021/01/01 02:03:31;;;;;;;152.07;84.40;;;4.00;99.90;;;;;;5015140;28;20248;-72
2021/01/01 02:05:59;;;;;;;156.00;84.00;;;4.00;99.90;;;;;;5013009;28;20193;-72
2021/01/01 02:08:26;;;;;;;147.93;84.83;;;4.10;99.90;;;;;;5016515;28;20281;-72
2021/01/01 02:10:55;;;;;;;158.13;85.00;;;3.90;99.90;;;;;;5014082;28;20312;-72
2021/01/01 02:13:22;;;;;;;159.77;84.17;;;3.80;99.90;;;;;;5029113;28;20212;-72
2021/01/01 02:15:49;;;;;;;151.30;82.93;;;3.70;99.90;;;;;;5015188;28;20665;-72
2021/01/01 02:18:38;;;;;;;155.67;86.53;;;3.80;99.90;;;;;;5011926;28;20229;-72
2021/01/01 02:21:07;;;;;;;150.50;78.90;;;3.90;99.90;;;;;;5026143;28;20192;-72
2021/01/01 02:23:34;;;;;;;154.50;82.30;;;3.80;99.90;;;;;;5016814;28;20248;-72
2021/01/01 02:26:01;;;;;;;148.40;76.90;;;3.80;99.90;;;;;;5015373;28;20303;-72
2021/01/01 02:28:27;;;;;;;130.87;74.40;;;3.60;99.90;;;;;;5014705;28;20344;-72
2021/01/01 02:30:54;;;;;;;138.90;73.47;;;3.70;99.90;;;;;;5017713;28;20779;-72
2021/01/01 02:33:20;;;;;;;129.07;70.80;;;3.80;99.90;;;;;;5015833;28;20213;-72
2021/01/01 02:35:46;;;;;;;119.07;64.13;;;3.80;99.90;;;;;;5017696;28;20258;-72
2021/01/01 02:38:13;;;;;;;116.57;61.63;;;3.60;99.90;;;;;;5016403;28;20285;-72
2021/01/01 02:40:39;;;;;;;109.87;55.97;;;3.60;99.90;;;;;;5012845;28;20244;-72
2021/01/01 02:43:06;;;;;;;93.83;54.87;;;3.70;99.90;;;;;;5014604;28;20256;-72
2021/01/01 02:45:33;;;;;;;106.87;57.13;;;3.70;99.90;;;;;;5001670;28;20204;-72
2021/01/01 02:48:10;;;;;;;102.97;57.47;;;3.70;99.90;;;;;;5013434;28;20209;-72
2021/01/01 02:50:37;;;;;;;103.63;55.87;;;3.50;99.90;;;;;;5028057;28;20236;-72
2021/01/01 02:53:04;;;;;;;107.87;56.37;;;3.40;99.90;;;;;;5014298;28;20650;-72
2021/01/01 02:55:31;;;;;;;106.73;54.83;;;3.40;99.90;;;;;;4998680;28;20228;-72
2021/01/01 02:57:59;;;;;;;105.37;55.30;;;3.30;99.90;;;;;;5016977;28;20214;-73
2021/01/01 03:00:26;;;;;;;101.40;54.27;;;3.40;99.90;;;;;;5018782;28;20277;-72
2021/01/01 03:02:53;;;;;;;95.53;54.57;;;3.50;99.90;;;;;;5013813;28;20243;-72
2021/01/01 03:05:19;;;;;;;107.23;55.83;;;3.60;99.90;;;;;;5015652;28;20228;-72
2021/01/01 03:07:46;;;;;;;93.73;52.37;;;3.70;99.90;;;;;;5015264;28;20243;-72
2021/01/01 03:10:12;;;;;;;100.60;51.43;;;3.70;99.90;;;;;;5014053;28;20841;-72
2021/01/01 03:12:38;;;;;;;91.20;49.13;;;3.70;99.90;;;;;;4997338;28;20309;-72
2021/01/01 03:15:06;;;;;;;89.53;48.80;;;3.60;99.90;;;;;;5016570;28;20261;-72
2021/01/01 03:17:33;;;;;;;91.77;49.30;;;3.40;99.90;;;;;;5011842;28;20299;-72
2021/01/01 03:19:59;;;;;;;90.03;48.00;;;3.50;99.90;;;;;;5030276;28;20285;-72
2021/01/01 03:22:26;;;;;;;98.83;49.60;;;3.60;99.90;;;;;;5015647;28;20298;-72
2021/01/01 03:24:52;;;;;;;93.33;51.20;;;3.50;99.90;;;;;;5014137;28;20240;-71
2021/01/01 03:27:18;;;;;;;91.67;49.57;;;3.60;99.90;;;;;;5013728;28;20231;-71
2021/01/01 03:29:45;;;;;;;93.57;48.17;;;3.60;99.90;;;;;;5018294;28;20236;-71
2021/01/01 03:32:11;;;;;;;94.77;50.40;;;3.50;99.90;;;;;;5026111;28;20209;-72
2021/01/01 03:34:37;;;;;;;90.50;48.37;;;3.30;99.90;;;;;;5015957;28;20208;-72
2021/01/01 03:37:04;;;;;;;85.13;48.67;;;3.10;99.90;;;;;;5017589;28;20290;-72
2021/01/01 03:39:30;;;;;;;91.83;47.93;;;3.00;99.90;;;;;;5017819;28;20366;-72
2021/01/01 03:41:56;;;;;;;95.03;51.57;;;3.20;99.90;;;;;;5015303;28;20335;-72
2021/01/01 03:44:23;;;;;;;87.60;49.87;;;3.30;99.90;;;;;;5017607;28;20212;-72
2021/01/01 03:46:49;;;;;;;91.13;47.63;;;3.40;99.90;;;;;;5018549;28;20674;-72
2021/01/01 03:49:15;;;;;;;90.67;47.50;;;3.50;99.90;;;;;;5019772;28;20645;-72
2021/01/01 03:51:41;;;;;;;86.00;44.43;;;3.50;99.90;;;;;;5016767;28;20331;-72
2021/01/01 03:54:08;;;;;;;79.90;44.00;;;3.30;99.90;;;;;;5030488;28;20303;-72
2021/01/01 03:56:34;;;;;;;79.50;41.47;;;3.20;99.90;;;;;;5018847;28;20192;-72
2021/01/01 03:59:00;;;;;;;77.87;41.40;;;3.00;99.90;;;;;;5017351;28;20255;-72
2021/01/01 04:01:26;;;;;;;78.50;41.13;;;2.90;99.90;;;;;;5013500;28;20291;-72
2021/01/01 04:03:53;;;;;;;77.60;40.60;;;2.90;99.90;;;;;;5050315;28;20208;-72
2021/01/01 04:06:19;;;;;;;71.73;38.23;;;2.90;99.90;;;;;;5017273;28;20277;-72
2021/01/01 04:08:45;;;;;;;69.00;36.80;;;2.80;99.90;;;;;;5002244;28;20240;-72
2021/01/01 04:11:12;;;;;;;66.83;37.70;;;3.10;99.90;;;;;;5030226;28;20209;-72
2021/01/01 04:13:38;;;;;;;72.23;38.63;;;3.00;99.90;;;;;;5024972;28;20680;-71
2021/01/01 04:16:04;;;;;;;73.73;39.93;;;3.00;99.90;;;;;;5049400;28;20221;-72
2021/01/01 04:18:31;;;;;;;67.77;36.60;;;3.30;99.90;;;;;;5027589;28;20224;-72
2021/01/01 04:20:57;;;;;;;74.23;38.17;;;3.40;99.90;;;;;;5015839;28;20197;-72
2021/01/01 04:23:23;;;;;;;62.63;35.93;;;3.40;99.90;;;;;;5015826;28;22430;-72
2021/01/01 04:25:49;;;;;;;67.00;35.83;;;3.40;99.90;;;;;;5000762;28;20283;-71
2021/01/01 04:28:16;;;;;;;64.90;34.97;;;3.20;99.90;;;;;;5033080;28;20270;-72
2021/01/01 04:30:42;;;;;;;68.30;35.33;;;3.30;99.90;;;;;;5017575;28;20287;-72
2021/01/01 04:33:09;;;;;;;61.90;33.03;;;3.30;99.90;;;;;;5015718;28;20235;-72
2021/01/01 04:35:36;;;;;;;66.63;33.37;;;3.30;99.90;;;;;;5014090;28;20202;-72
2021/01/01 04:38:02;;;;;;;60.87;33.03;;;3.30;99.90;;;;;;5017880;28;20212;-72
2021/01/01 04:40:28;;;;;;;63.50;33.50;;;3.30;99.90;;;;;;5017129;28;21082;-71
2021/01/01 04:42:55;;;;;;;63.30;34.97;;;3.40;99.90;;;;;;5016240;28;20595;-71
2021/01/01 04:45:21;;;;;;;61.17;33.73;;;3.20;99.90;;;;;;5014066;28;20220;-71
2021/01/01 04:47:47;;;;;;;63.27;32.63;;;3.10;99.90;;;;;;5012528;28;20305;-71
2021/01/01 04:50:15;;;;;;;57.77;32.93;;;2.90;99.90;;;;;;5013582;28;20235;-71
2021/01/01 04:52:43;;;;;;;62.90;31.43;;;3.00;99.90;;;;;;5018108;28;20580;-72
2021/01/01 04:55:10;;;;;;;61.03;32.03;;;3.20;99.90;;;;;;5016737;28;20231;-72
2021/01/01 04:57:37;;;;;;;68.17;32.87;;;3.20;99.90;;;;;;5017942;28;20254;-72
2021/01/01 05:00:04;;;;;;;61.73;34.27;;;3.20;99.90;;;;;;5012503;28;20600;-72
2021/01/01 05:02:31;;;;;;;65.27;32.73;;;3.20;99.90;;;;;;5048310;28;20241;-72
2021/01/01 05:04:57;;;;;;;63.10;34.10;;;3.30;99.90;;;;;;5016985;28;20245;-71
2021/01/01 05:07:24;;;;;;;65.53;33.27;;;3.30;99.90;;;;;;5016586;28;20197;-71
2021/01/01 05:09:50;;;;;;;62.90;31.10;;;3.10;99.90;;;;;;5014496;28;20283;-72
2021/01/01 05:12:16;;;;;;;69.27;35.17;;;3.10;99.90;;;;;;5000996;28;20220;-71
2021/01/01 05:14:42;;;;;;;62.87;31.87;;;3.20;99.90;;;;;;5016977;28;20243;-72
2021/01/01 05:17:09;;;;;;;59.23;32.73;;;3.20;99.90;;;;;;5015312;28;20240;-71
2021/01/01 05:19:43;;;;;;;62.03;32.80;;;3.20;99.90;;;;;;5017057;28;20243;-71
2021/01/01 05:22:12;;;;;;;61.30;30.53;;;3.40;99.90;;;;;;5016617;28;20251;-71
2021/01/01 05:24:48;;;;;;;62.57;31.07;;;3.40;99.90;;;;;;5019359;28;20216;-72
2021/01/01 05:27:17;;;;;;;58.07;31.07;;;3.40;99.90;;;;;;5014803;28;20295;-71
2021/01/01 05:29:57;;;;;;;61.00;29.93;;;3.20;99.90;;;;;;5013852;28;20244;-71
2021/01/01 05:32:28;;;;;;;56.80;30.63;;;3.20;99.90;;;;;;5017293;28;20638;-72
2021/01/01 05:34:56;;;;;;;59.43;30.37;;;3.30;99.90;;;;;;5015232;28;20306;-73
2021/01/01 05:37:30;;;;;;;52.33;28.57;;;3.30;99.90;;;;;;5015342;28;20238;-72
2021/01/01 05:40:04;;;;;;;62.60;30.53;;;3.20;99.90;;;;;;5014503;28;20205;-71
2021/01/01 05:42:32;;;;;;;56.57;30.70;;;3.10;99.90;;;;;;5017208;28;20206;-71
2021/01/01 05:45:20;;;;;;;58.57;30.53;;;3.30;99.90;;;;;;5015240;28;20273;-72
2021/01/01 05:48:06;;;;;;;58.37;29.63;;;3.10;99.90;;;;;;5017089;28;20239;-72
2021/01/01 05:50:35;;;;;;;56.20;30.50;;;3.20;99.90;;;;;;5013191;28;20239;-72
2021/01/01 05:53:18;;;;;;;62.67;30.00;;;3.20;99.90;;;;;;5015145;28;20326;-72
2021/01/01 05:55:48;;;;;;;56.60;29.53;;;3.40;99.90;;;;;;5013951;28;20204;-72
2021/01/01 05:58:33;;;;;;;59.30;30.93;;;3.30;99.90;;;;;;5017739;28;20212;-73
2021/01/01 06:01:01;;;;;;;52.03;28.90;;;3.50;99.90;;;;;;5014800;28;20637;-72
2021/01/01 06:03:33;;;;;;;55.37;30.70;;;3.80;99.90;;;;;;5032127;28;20232;-71
2021/01/01 06:06:04;;;;;;;49.30;28.10;;;3.80;99.90;;;;;;5012443;28;20229;-72
2021/01/01 06:08:32;;;;;;;55.90;29.40;;;3.90;99.90;;;;;;5017932;28;20211;-72
2021/01/01 06:11:05;;;;;;;53.67;31.27;;;3.80;99.90;;;;;;5012219;28;20204;-72
2021/01/01 06:13:34;;;;;;;49.77;27.97;;;3.90;99.90;;;;;;5016296;28;20213;-71
2021/01/01 06:16:02;;;;;;;53.63;28.47;;;3.80;99.90;;;;;;5022544;28;20289;-72
2021/01/01 06:18:31;;;;;;;49.30;26.63;;;3.80;99.90;;;;;;5027970;28;20217;-72
2021/01/01 06:21:07;;;;;;;43.63;25.70;;;3.70;99.90;;;;;;5014442;28;20259;-72
2021/01/01 06:23:39;;;;;;;42.30;23.67;;;3.70;99.90;;;;;;5014558;28;20257;-72
2021/01/01 06:26:07;;;;;;;44.53;24.23;;;3.60;99.90;;;;;;5029374;28;20227;-72
2021/01/01 06:28:36;;;;;;;44.60;23.80;;;3.60;99.90;;;;;;5003364;28;20279;-72
2021/01/01 06:31:05;;;;;;;44.23;24.13;;;3.50;99.90;;;;;;5014495;28;20281;-72
2021/01/01 06:33:33;;;;;;;46.30;24.43;;;3.40;99.90;;;;;;5014246;28;20307;-72
2021/01/01 06:35:59;;;;;;;41.97;21.90;;;3.50;99.90;;;;;;5013646;28;20205;-72
2021/01/01 06:38:40;;;;;;;42.80;23.67;;;3.60;99.90;;;;;;5013991;28;20721;-72
2021/01/01 06:41:13;;;;;;;41.63;22.30;;;3.50;99.90;;;;;;5012510;28;20566;-72
2021/01/01 06:43:55;;;;;;;40.73;21.53;;;3.40;99.90;;;;;;5018364;28;20205;-71
2021/01/01 06:46:36;;;;;;;42.07;22.67;;;3.50;99.90;;;;;;5020870;28;20597;-71
2021/01/01 06:49:04;;;;;;;39.00;21.20;;;3.40;99.90;;;;;;5029018;28;20215;-72
2021/01/01 06:51:32;;;;;;;37.83;21.43;;;3.40;99.90;;;;;;5029475;28;20278;-71
2021/01/01 06:54:15;;;;;;;39.47;22.10;;;3.20;99.90;;;;;;5015116;28;20270;-71
2021/01/01 06:56:42;;;;;;;42.83;22.80;;;3.20;99.90;;;;;;5030577;28;20255;-71
2021/01/01 06:59:15;;;;;;;40.50;20.13;;;3.20;99.90;;;;;;5012752;28;20249;-72
2021/01/01 07:01:45;;;;;;;36.33;21.50;;;3.40;99.90;;;;;;4993129;28;21014;-72
2021/01/01 07:04:12;;;;;;;33.73;20.07;;;3.40;99.90;;;;;;5000265;28;20304;-72
2021/01/01 07:06:40;;;;;;;40.73;21.43;;;3.50;99.90;;;;;;5014618;28;20228;-72
2021/01/01 07:09:09;;;;;;;36.23;20.90;;;3.50;99.90;;;;;;5027315;28;20247;-72
2021/01/01 07:11:37;;;;;;;37.87;20.07;;;3.50;99.90;;;;;;5030801;28;20578;-72
2021/01/01 07:14:11;;;;;;;35.07;19.30;;;3.40;99.90;;;;;;5034440;28;20201;-72
2021/01/01 07:16:40;;;;;;;33.20;19.80;;;3.50;99.90;;;;;;5016262;28;20611;-72
2021/01/01 07:19:07;;;;;;;36.30;19.70;;;3.50;99.90;;;;;;5024181;28;20247;-72
2021/01/01 07:21:34;;;;;;;30.60;17.20;;;3.30;99.90;;;;;;5008699;28;20212;-72
2021/01/01 07:24:01;;;;;;;32.97;16.57;;;3.20;99.90;;;;;;5016737;28;20264;-71
2021/01/01 07:26:29;;;;;;;30.83;17.70;;;3.20;99.90;;;;;;5017454;28;20235;-72
2021/01/01 07:28:59;;;;;;;30.37;16.53;;;3.20;99.90;;;;;;5014852;28;20670;-71
2021/01/01 07:31:26;;;;;;;37.77;18.20;;;3.20;99.90;;;;;;5014979;28;20316;-72
2021/01/01 07:33:57;;;;;;;33.50;17.57;;;3.30;99.90;;;;;;5018295;28;20670;-72
2021/01/01 07:36:23;;;;;;;23.53;14.63;;;3.30;99.90;;;;;;5020557;28;20207;-72
2021/01/01 07:38:50;;;;;;;29.07;16.53;;;3.30;99.90;;;;;;5016504;28;20291;-72
2021/01/01 07:41:18;;;;;;;33.10;16.50;;;3.30;99.90;;;;;;5016429;28;20199;-72
2021/01/01 07:43:49;;;;;;;29.60;16.70;;;3.30;99.90;;;;;;5018530;28;20232;-72
2021/01/01 07:46:16;;;;;;;32.30;15.97;;;3.40;99.90;;;;;;5018248;28;20297;-72
2021/01/01 07:48:42;;;;;;;31.00;16.33;;;3.50;99.90;;;;;;5008247;28;20245;-72
2021/01/01 07:51:10;;;;;;;29.23;16.50;;;3.30;99.90;;;;;;5014006;28;20330;-72
2021/01/01 07:53:37;;;;;;;30.03;15.67;;;3.40;99.90;;;;;;5019228;28;20685;-72
2021/01/01 07:56:07;;;;;;;29.90;15.80;;;3.40;99.90;;;;;;5023141;28;20279;-72
2021/01/01 07:58:35;;;;;;;28.97;15.43;;;3.40;99.90;;;;;;5019508;28;20667;-72
2021/01/01 08:01:06;;;;;;;26.37;14.77;;;3.50;99.90;;;;;;5014072;28;20572;-72
2021/01/01 08:03:34;;;;;;;23.20;13.97;;;3.40;99.90;;;;;;5016741;28;20295;-71
2021/01/01 08:06:01;;;;;;;31.27;16.30;;;3.40;99.90;;;;;;5015082;28;20246;-72
2021/01/01 08:08:28;;;;;;;25.80;13.43;;;3.30;99.90;;;;;;5014994;28;20692;-71
2021/01/01 08:10:56;;;;;;;27.33;14.63;;;3.20;99.90;;;;;;5016724;28;20208;-71
2021/01/01 08:13:31;;;;;;;29.47;15.37;;;3.20;99.90;;;;;;5030583;28;20213;-71
2021/01/01 08:15:58;;;;;;;23.53;13.77;;;3.30;99.90;;;;;;5033532;28;20667;-72
2021/01/01 08:18:26;;;;;;;26.57;14.37;;;3.30;99.90;;;;;;5016148;28;20736;-72
2021/01/01 08:20:58;;;;;;;22.93;13.37;;;3.20;99.90;;;;;;5014245;28;20232;-72
2021/01/01 08:23:26;;;;;;;22.30;12.40;;;3.00;99.90;;;;;;5019973;28;20207;-72
2021/01/01 08:25:54;;;;;;;19.60;11.50;;;3.10;99.90;;;;;;5018050;28;20204;-72
2021/01/01 08:28:28;;;;;;;18.83;11.07;;;3.00;99.90;;;;;;5013752;28;20317;-72
2021/01/01 08:31:08;;;;;;;22.67;11.80;;;3.20;99.90;;;;;;5001905;28;20257;-71
2021/01/01 08:33:39;;;;;;;19.33;10.20;;;3.20;99.90;;;;;;5015310;28;20255;-71
2021/01/01 08:36:10;;;;;;;20.87;10.20;;;3.10;99.90;;;;;;5020029;28;20210;-72
2021/01/01 08:38:39;;;;;;;18.83;10.10;;;3.10;99.90;;;;;;5017778;28;20255;-71
2021/01/01 08:41:06;;;;;;;19.20;10.00;;;3.10;99.90;;;;;;5022074;28;20295;-72
2021/01/01 08:43:32;;;;;;;20.83;10.37;;;3.20;99.90;;;;;;5002352;28;20219;-72
2021/01/01 08:46:17;;;;;;;17.70;9.43;;;3.40;99.90;;;;;;5018139;28;20216;-72
2021/01/01 08:48:44;;;;;;;17.43;10.23;;;3.70;99.90;;;;;;5034175;28;20207;-71
2021/01/01 08:51:10;;;;;;;16.43;9.57;;;3.70;99.90;;;;;;5016656;28;20235;-71
2021/01/01 08:53:40;;;;;;;19.83;10.10;;;3.90;99.90;;;;;;5017315;28;20232;-72
2021/01/01 08:56:08;;;;;;;18.70;9.50;;;4.10;99.90;;;;;;5031305;28;20228;-71
2021/01/01 08:58:35;;;;;;;17.80;8.27;;;4.20;99.90;;;;;;5015478;28;20348;-71
2021/01/01 09:01:23;;;;;;;11.93;7.97;;;4.30;99.90;;;;;;5044459;28;20548;-72
2021/01/01 09:04:00;;;;;;;13.80;8.53;;;4.20;99.90;;;;;;5018315;28;20201;-72
2021/01/01 09:06:26;;;;;;;14.30;7.80;;;4.20;99.90;;;;;;5017265;28;21152;-72
2021/01/01 09:09:07;;;;;;;12.47;7.37;;;4.20;99.90;;;;;;5013430;28;20208;-72
2021/01/01 09:11:33;;;;;;;14.97;6.47;;;4.20;99.90;;;;;;5029968;28;20270;-71
2021/01/01 09:14:00;;;;;;;11.47;6.00;;;4.30;99.90;;;;;;5014031;28;20328;-72
2021/01/01 09:16:43;;;;;;;10.97;6.40;;;4.40;99.90;;;;;;5016981;28;20271;-72
2021/01/01 09:19:10;;;;;;;9.20;5.77;;;4.60;99.90;;;;;;5030681;28;20228;-72
2021/01/01 09:21:37;;;;;;;9.53;5.63;;;4.90;99.90;;;;;;5017488;28;20208;-72
2021/01/01 09:24:04;;;;;;;9.40;5.83;;;4.80;99.90;;;;;;5011070;28;20271;-73
2021/01/01 09:26:31;;;;;;;10.17;5.23;;;5.00;99.90;;;;;;5028863;28;20241;-73
2021/01/01 09:29:04;;;;;;;9.37;5.70;;;5.00;99.90;;;;;;5013221;28;20750;-75
2021/01/01 09:31:31;;;;;;;8.97;5.57;;;5.30;99.90;;;;;;5027273;28;20208;-73
2021/01/01 09:34:08;;;;;;;10.43;6.37;;;5.50;99.90;;;;;;5001774;28;20283;-74
2021/01/01 09:36:36;;;;;;;9.00;5.50;;;5.90;99.90;;;;;;5018004;28;20220;-73
2021/01/01 09:39:06;;;;;;;7.60;5.47;;;5.90;99.90;;;;;;5015541;28;20324;-73
2021/01/01 09:41:33;;;;;;;10.70;5.47;;;5.80;99.90;;;;;;5013726;28;20212;-73
2021/01/01 09:44:00;;;;;;;12.27;5.33;;;5.70;99.90;;;;;;5017593;28;20255;-71
2021/01/01 09:46:26;;;;;;;7.63;5.43;;;6.10;99.90;;;;;;5015056;28;20577;-71
2021/01/01 09:48:52;;;;;;;8.57;5.30;;;6.40;99.90;;;;;;5041550;28;20232;-72
2021/01/01 09:51:18;;;;;;;9.33;5.30;;;6.20;99.90;;;;;;5030634;28;20201;-71
2021/01/01 09:53:45;;;;;;;9.83;5.33;;;6.10;99.90;;;;;;5018749;28;20216;-72
2021/01/01 09:56:12;;;;;;;7.83;4.57;;;6.20;99.90;;;;;;5011387;28;20606;-71
2021/01/01 09:58:38;;;;;;;9.37;4.53;;;6.20;99.90;;;;;;5012641;28;20236;-72
2021/01/01 10:01:04;;;;;;;10.13;5.43;;;6.50;99.90;;;;;;5015113;28;20236;-72
2021/01/01 10:03:31;;;;;;;9.83;4.97;;;6.80;99.90;;;;;;5002999;28;20218;-72
2021/01/01 10:05:57;;;;;;;12.03;5.47;;;7.00;99.90;;;;;;5014646;28;20228;-73
2021/01/01 10:08:23;;;;;;;6.63;3.87;;;7.50;99.90;;;;;;5032419;28;20342;-73
2021/01/01 10:10:52;;;;;;;5.37;3.60;;;7.10;99.90;;;;;;5013671;28;20610;-73
2021/01/01 10:13:18;;;;;;;7.93;4.70;;;7.20;99.90;;;;;;5016339;28;20544;-73
2021/01/01 10:15:46;;;;;;;6.53;3.93;;;7.20;99.90;;;;;;5017919;28;20205;-73
2021/01/01 10:18:12;;;;;;;5.70;4.33;;;7.30;99.90;;;;;;5015944;28;20200;-73
2021/01/01 10:20:38;;;;;;;6.73;4.10;;;7.40;99.90;;;;;;5009202;28;20212;-72
2021/01/01 10:23:04;;;;;;;7.30;3.87;;;7.50;99.90;;;;;;5045040;28;20256;-72
2021/01/01 10:25:31;;;;;;;8.63;4.00;;;7.40;99.90;;;;;;5005848;28;20229;-72
2021/01/01 10:27:57;;;;;;;5.77;3.67;;;7.50;99.90;;;;;;5013503;28;20291;-72
2021/01/01 10:30:23;;;;;;;6.50;4.30;;;7.30;99.90;;;;;;4999289;28;20212;-72
2021/01/01 10:32:50;;;;;;;8.07;4.53;;;7.20;99.90;;;;;;5014160;28;20590;-73
2021/01/01 10:35:16;;;;;;;6.87;4.30;;;7.50;99.90;;;;;;5010798;28;20221;-71
2021/01/01 10:37:42;;;;;;;6.67;4.10;;;7.20;99.90;;;;;;5029638;28;20331;-74
2021/01/01 10:40:09;;;;;;;7.20;3.67;;;7.50;99.90;;;;;;5008162;28;20220;-72
2021/01/01 10:42:35;;;;;;;7.50;3.80;;;7.50;99.90;;;;;;5011073;28;20201;-72
2021/01/01 10:45:01;;;;;;;6.20;4.20;;;7.10;99.90;;;;;;5015513;28;20212;-72
2021/01/01 10:47:28;;;;;;;5.83;3.60;;;6.90;99.90;;;;;;5017157;28;20362;-72
2021/01/01 10:49:54;;;;;;;7.37;4.10;;;6.60;99.90;;;;;;4997644;28;20740;-72
2021/01/01 10:52:20;;;;;;;6.83;4.07;;;6.50;99.90;;;;;;5031962;28;20244;-73
2021/01/01 10:54:46;;;;;;;6.63;3.97;;;6.50;99.90;;;;;;5014015;28;20205;-72
2021/01/01 10:57:13;;;;;;;8.20;4.07;;;6.90;99.90;;;;;;5015291;28;20267;-72
2021/01/01 10:59:40;;;;;;;7.73;4.07;;;7.00;99.90;;;;;;5010481;28;20225;-72
2021/01/01 11:02:06;;;;;;;5.60;3.70;;;6.70;99.90;;;;;;5025135;28;20206;-72
2021/01/01 11:04:33;;;;;;;7.97;4.03;;;6.80;99.90;;;;;;5017587;28;20627;-72
2021/01/01 11:07:00;;;;;;;4.83;3.13;;;6.70;99.90;;;;;;5046288;28;20291;-72
2021/01/01 11:09:26;;;;;;;4.97;3.13;;;6.80;99.90;;;;;;5027222;28;20242;-71
2021/01/01 11:11:57;;;;;;;5.43;3.57;;;6.30;99.90;;;;;;5011054;28;20215;-73
2021/01/01 12:20:59;;;;;;;6.23;3.30;;;6.60;99.90;;;;;;5010492;28;20208;-74
2021/01/01 12:23:40;;;;;;;7.87;3.33;;;6.70;99.90;;;;;;5015389;28;20242;-74
2021/01/01 12:26:09;;;;;;;6.40;3.53;;;6.60;99.90;;;;;;5012910;28;20243;-73
2021/01/01 12:28:54;;;;;;;8.03;3.00;;;6.50;99.90;;;;;;5017640;28;20324;-73
2021/01/01 12:31:21;;;;;;;4.40;3.10;;;6.30;99.90;;;;;;5017888;28;20305;-74
2021/01/01 12:33:47;;;;;;;5.63;3.20;;;6.20;99.90;;;;;;5016868;28;20305;-74
2021/01/01 12:36:14;;;;;;;6.30;3.10;;;6.00;99.90;;;;;;5003989;28;20675;-73
2021/01/01 12:38:40;;;;;;;6.77;3.30;;;6.00;99.90;;;;;;5002083;28;20229;-73
2021/01/01 12:41:07;;;;;;;8.13;3.37;;;6.00;99.90;;;;;;5012651;28;20286;-74
2021/01/01 12:43:34;;;;;;;4.70;2.73;;;6.10;99.90;;;;;;5017121;28;20279;-73
2021/01/01 12:46:00;;;;;;;8.00;3.50;;;5.90;99.90;;;;;;4998117;28;20202;-73
2021/01/01 12:48:26;;;;;;;4.83;3.07;;;5.90;99.90;;;;;;5006205;28;20202;-74
2021/01/01 12:50:53;;;;;;;7.80;3.67;;;5.90;99.90;;;;;;5006744;28;20239;-73
2021/01/01 12:53:19;;;;;;;7.27;3.67;;;5.90;99.90;;;;;;4993684;28;20299;-74
2021/01/01 12:55:45;;;;;;;6.57;4.03;;;5.90;99.90;;;;;;4998169;28;20229;-73
2021/01/01 12:58:11;;;;;;;8.37;4.37;;;5.90;99.90;;;;;;5009133;28;20249;-73
2021/01/01 13:00:38;;;;;;;7.17;4.60;;;5.80;99.90;;;;;;5014206;28;20729;-74
2021/01/01 13:03:04;;;;;;;9.37;4.83;;;5.80;99.90;;;;;;5007223;28;20289;-73
2021/01/01 13:05:31;;;;;;;9.53;4.57;;;5.80;99.90;;;;;;5010074;28;20228;-74
2021/01/01 13:07:57;;;;;;;6.97;4.43;;;5.80;99.90;;;;;;5014726;28;20293;-73
2021/01/01 13:10:23;;;;;;;12.97;5.97;;;5.90;99.90;;;;;;5006211;28;20800;-74
2021/01/01 13:12:52;;;;;;;9.37;4.60;;;5.90;99.90;;;;;;5043496;28;20232;-73
2021/01/01 13:15:19;;;;;;;12.17;5.40;;;6.10;99.90;;;;;;5014297;28;20289;-74
2021/01/01 13:17:46;;;;;;;11.40;5.47;;;6.10;99.90;;;;;;5014154;28;20518;-74
2021/01/01 13:20:13;;;;;;;11.77;5.17;;;6.30;99.90;;;;;;5011975;28;20234;-74
2021/01/01 13:22:39;;;;;;;9.83;4.83;;;6.30;99.90;;;;;;5010537;28;20214;-74
2021/01/01 13:25:06;;;;;;;8.40;5.00;;;6.30;99.90;;;;;;5009726;28;20209;-74
2021/01/01 13:27:32;;;;;;;7.53;5.00;;;6.20;99.90;;;;;;5026940;28;20238;-73
2021/01/01 13:30:00;;;;;;;9.93;5.50;;;6.50;99.90;;;;;;5012052;28;20334;-74
2021/01/01 13:32:26;;;;;;;7.03;4.83;;;6.00;99.90;;;;;;5009067;28;20618;-74
2021/01/01 13:34:52;;;;;;;8.80;5.57;;;6.20;99.90;;;;;;5000003;28;20206;-74
2021/01/01 13:37:19;;;;;;;9.97;5.03;;;6.20;99.90;;;;;;5008240;28;20235;-73
2021/01/01 13:39:46;;;;;;;7.97;5.47;;;6.30;99.90;;;;;;4994560;28;20207;-73
2021/01/01 13:42:13;;;;;;;11.63;5.60;;;6.50;99.90;;;;;;5007467;28;20352;-74
2021/01/01 13:44:39;;;;;;;8.60;5.40;;;6.30;99.90;;;;;;5009610;28;20215;-74
2021/01/01 13:47:06;;;;;;;8.87;5.23;;;6.30;99.90;;;;;;5005514;28;20217;-74
2021/01/01 13:49:32;;;;;;;8.50;4.73;;;6.30;99.90;;;;;;5009201;28;20222;-74
2021/01/01 13:52:01;;;;;;;10.57;5.90;;;6.10;99.90;;;;;;5023970;28;20638;-73